Green Spring, WV (26722)

2:45 AM EST on December 03, 2016 (GMT -0500)
Cheers Alpaca Farm, Potomac South Branch Green Spring Wv | | Change Station

Elev 725 ft 39.49 °N, 78.59 °W | Updated 11 seconds ago

Overcast
Overcast
40.0 °F
Feels Like 40 °F
N
2.0
Wind Variable Wind from ESE

Today
High -- | Low -- °F
--% Chance of Precip.
Yesterday
High -- | Low -- °F
Precip. -- in
Pressure 30.15 in
Visibility 10.0 miles
Clouds Overcast 3700 ft
Windchill 40 °F
Dew Point 29 °F
Humidity 65%
Rainfall 0.00 in
Snow Depth Not available.
7:18 AM 4:50 PM
Waxing Crescent, 13% visible
METAR KMRB 030653Z AUTO VRB06KT 10SM OVC037 06/M02 A3014 RMK AO2 SLP208 T00561022 TSNO
Pressure 30.15 in
Visibility 10.0 miles
Clouds Overcast 3700 ft
Windchill 40 °F
Dew Point 29 °F
Humidity 65%
Rainfall 0.00 in
Snow Depth Not available.
7:18 AM 4:50 PM
Waxing Crescent, 13% visible
METAR KMRB 030653Z AUTO VRB06KT 10SM OVC037 06/M02 A3014 RMK AO2 SLP208 T00561022 TSNO

10-Day Weather Forecast

Almanac

Astronomy

Dec. 03, 2016 Rise Set
Actual Time
Civil Twilight
Nautical Twilight
Astronomical Twilight
Moon
Length of Visible Light
Length of Day
Tomorrow will be .
, % of the Moon is Illuminated

Today's Extremes

State Highs State Lows

Community

WunderPhotos

Upload Photos

1,955,432 photos uploaded!

WunderBlog® & News

Nearby

Air Quality

  Air Quality AQ Index Pollutant
Not available.

Snow Depth

Station Depth Elevation

Earthquake Activity

City Distance Mag. Time & Date
Minimum magnitude displayed is 2.5.

Coastal Water Temperatures

Place Temperature

Stations

Nearby Weather Stations

Station Location Temp. Windchill Dew Point Humidity Wind Precip. Elev Updated Type
                   

Watches & Warnings

There are currently no watches in effect.